OOCL Charleston — VRFX2 — position and weather

sailwx.info

Track history (hours):
 
Tides and Currents Weather Stations Pressure Air Temp Water Temp Dewpoint Dewpoint Depression Visibility Wind Speed Wind Dir Waves Ship Positions

OOCL Charleston

Last reported at 2017-Oct-19 14:00 UTC. Time now 2017-Oct-19 14:20 UTC.
Position N 35°26' E 139°41'.

Length 260 m; draft 9.4 m.

Type: Cargo ship. MMSI: 477626388.

Date/timePositionNaut miles runAvg speedWind from/ knotsBaromVisibWave heightAir tempDewpointWater temp
2017-Oct-19 14:00N 35°26' E 139°41'0 0.0
2017-Oct-19 13:30N 35°26' E 139°41'0 0.0
2017-Oct-19 13:00N 35°26' E 139°41'0 0.0
2017-Oct-19 12:30N 35°26' E 139°41'0 0.0
2017-Oct-19 12:00N 35°26' E 139°41'0 0.0
2017-Oct-19 11:30N 35°26' E 139°41'0 0.8
2017-Oct-19 11:00N 35°26' E 139°41'3 5.0
2017-Oct-19 10:30N 35°26' E 139°44'611.9
2017-Oct-19 10:01N 35°29' E 139°50'713.7
2017-Oct-19 09:30N 35°35' E 139°47'1 2.6
2017-Oct-19 09:00N 35°37' E 139°47'0 0.0
2017-Oct-19 08:28N 35°37' E 139°47'0 0.0
2017-Oct-19 07:55N 35°37' E 139°47'0 0.0
2017-Oct-19 07:22N 35°37' E 139°47'0 0.0
2017-Oct-19 06:58N 35°37' E 139°47'0 0.0
2017-Oct-19 06:28N 35°37' E 139°47'0 0.0
2017-Oct-19 05:58N 35°37' E 139°47'0 0.0
2017-Oct-19 05:28N 35°37' E 139°47'0 0.0
2017-Oct-19 04:58N 35°37' E 139°47'0 0.0
2017-Oct-19 04:28N 35°37' E 139°47'0 0.0
2017-Oct-19 03:58N 35°37' E 139°47'0 0.0
2017-Oct-19 03:28N 35°37' E 139°47'0 0.0
2017-Oct-19 02:58N 35°37' E 139°47'0 0.0
2017-Oct-19 02:25N 35°37' E 139°47'0 0.0
2017-Oct-19 01:55N 35°37' E 139°47'0 0.0
2017-Oct-19 01:28N 35°37' E 139°47'0 0.0
2017-Oct-19 00:58N 35°37' E 139°47'0 0.0
2017-Oct-19 00:28N 35°37' E 139°47'0 0.1
2017-Oct-18 23:58N 35°37' E 139°47'0 1.0
2017-Oct-18 23:30N 35°36' E 139°47'4 8.8
2017-Oct-18 23:00N 35°33' E 139°51'611.1
2017-Oct-18 22:30N 35°27' E 139°50'713.3
2017-Oct-18 22:00N 35°22' E 139°45'611.3
2017-Oct-18 21:30N 35°17' E 139°46'611.8
2017-Oct-18 21:00N 35°11' E 139°47'5 9.4
2017-Oct-18 20:30N 35°06' E 139°45'510.3
2017-Oct-18 20:00N 35°01' E 139°43'814.9
2017-Oct-18 19:30N 34°54' E 139°39'714.4
2017-Oct-18 19:00N 34°48' E 139°36'915.2
2017-Oct-18 18:23N 34°40' E 139°30'  
2017-Oct-15 12:17N 24°14' E 118°48'312.2
2017-Oct-15 12:00N 24°12' E 118°45'812.4
2017-Oct-15 11:21N 24°07' E 118°38'412.5
2017-Oct-15 11:00N 24°05' E 118°34'712.5
2017-Oct-15 10:25N 24°00' E 118°27'512.6
2017-Oct-15 10:00N 23°57' E 118°23'25510.2
2017-Oct-14 09:01N 22°19' E 114°06'010.8
2017-Oct-14 08:59N 22°19' E 114°07'0 0.0
2017-Oct-13 18:02N 22°19' E 114°07'0 6.6
2017-Oct-13 18:00N 22°19' E 114°07'321 9.3
2017-Oct-12 07:17N 22°31' E 119°54'519.2
2017-Oct-12 07:00N 22°32' E 119°60'1019.5
2017-Oct-12 06:30N 22°33' E 120°10'815.9
2017-Oct-12 06:00N 22°33' E 120°19'1 2.1
2017-Oct-12 05:30N 22°34' E 120°19'0 0.1
2017-Oct-12 03:01N 22°34' E 120°19'0 0.0
2017-Oct-12 02:49N 22°34' E 120°19'0 0.0
2017-Oct-12 02:28N 22°34' E 120°19'0 0.0
2017-Oct-11 23:31N 22°34' E 120°19'0 0.0
2017-Oct-11 23:18N 22°34' E 120°19'0 1.7
2017-Oct-11 23:00N 22°34' E 120°19'2 4.4
2017-Oct-11 22:30N 22°33' E 120°17'3 5.6
2017-Oct-11 22:00N 22°31' E 120°14'2 3.8
2017-Oct-11 21:30N 22°30' E 120°13'0 0.7
2017-Oct-11 21:00N 22°30' E 120°13'0 0.3
2017-Oct-11 20:30N 22°30' E 120°13'0 0.8
2017-Oct-11 20:00N 22°30' E 120°13'3 6.2
2017-Oct-11 19:30N 22°33' E 120°10'4 7.6
2017-Oct-11 19:00N 22°36' E 120°09'4 8.0
2017-Oct-11 18:30N 22°40' E 120°07'4 8.2
2017-Oct-11 18:00N 22°43' E 120°05'4 8.3
2017-Oct-11 17:30N 22°47' E 120°03'4 8.0
2017-Oct-11 17:00N 22°51' E 120°01'  
Track history (hours):
 
Tides and Currents Weather Stations Pressure Air Temp Water Temp Dewpoint Dewpoint Depression Visibility Wind Speed Wind Dir Waves Ship Positions

OOCL Charleston

Last reported at 2017-Oct-19 14:00 UTC. Time now 2017-Oct-19 14:20 UTC.
Position N 35°26' E 139°41'.

Length 260 m; draft 9.4 m.

Type: Cargo ship. MMSI: 477626388.

Date/timePositionNaut miles runAvg speedWind from/ knotsBaromVisibWave heightAir tempDewpointWater temp
2017-Oct-19 14:00N 35°26' E 139°41'0 0.0
2017-Oct-19 13:30N 35°26' E 139°41'0 0.0
2017-Oct-19 13:00N 35°26' E 139°41'0 0.0
2017-Oct-19 12:30N 35°26' E 139°41'0 0.0
2017-Oct-19 12:00N 35°26' E 139°41'0 0.0
2017-Oct-19 11:30N 35°26' E 139°41'0 0.8
2017-Oct-19 11:00N 35°26' E 139°41'3 5.0
2017-Oct-19 10:30N 35°26' E 139°44'611.9
2017-Oct-19 10:01N 35°29' E 139°50'713.7
2017-Oct-19 09:30N 35°35' E 139°47'1 2.6
2017-Oct-19 09:00N 35°37' E 139°47'0 0.0
2017-Oct-19 08:28N 35°37' E 139°47'0 0.0
2017-Oct-19 07:55N 35°37' E 139°47'0 0.0
2017-Oct-19 07:22N 35°37' E 139°47'0 0.0
2017-Oct-19 06:58N 35°37' E 139°47'0 0.0
2017-Oct-19 06:28N 35°37' E 139°47'0 0.0
2017-Oct-19 05:58N 35°37' E 139°47'0 0.0
2017-Oct-19 05:28N 35°37' E 139°47'0 0.0
2017-Oct-19 04:58N 35°37' E 139°47'0 0.0
2017-Oct-19 04:28N 35°37' E 139°47'0 0.0
2017-Oct-19 03:58N 35°37' E 139°47'0 0.0
2017-Oct-19 03:28N 35°37' E 139°47'0 0.0
2017-Oct-19 02:58N 35°37' E 139°47'0 0.0
2017-Oct-19 02:25N 35°37' E 139°47'0 0.0
2017-Oct-19 01:55N 35°37' E 139°47'0 0.0
2017-Oct-19 01:28N 35°37' E 139°47'0 0.0
2017-Oct-19 00:58N 35°37' E 139°47'0 0.0
2017-Oct-19 00:28N 35°37' E 139°47'0 0.1
2017-Oct-18 23:58N 35°37' E 139°47'0 1.0
2017-Oct-18 23:30N 35°36' E 139°47'4 8.8
2017-Oct-18 23:00N 35°33' E 139°51'611.1
2017-Oct-18 22:30N 35°27' E 139°50'713.3
2017-Oct-18 22:00N 35°22' E 139°45'611.3
2017-Oct-18 21:30N 35°17' E 139°46'611.8
2017-Oct-18 21:00N 35°11' E 139°47'5 9.4
2017-Oct-18 20:30N 35°06' E 139°45'510.3
2017-Oct-18 20:00N 35°01' E 139°43'814.9
2017-Oct-18 19:30N 34°54' E 139°39'714.4
2017-Oct-18 19:00N 34°48' E 139°36'915.2
2017-Oct-18 18:23N 34°40' E 139°30'  
2017-Oct-15 12:17N 24°14' E 118°48'312.2
2017-Oct-15 12:00N 24°12' E 118°45'812.4
2017-Oct-15 11:21N 24°07' E 118°38'412.5
2017-Oct-15 11:00N 24°05' E 118°34'712.5
2017-Oct-15 10:25N 24°00' E 118°27'512.6
2017-Oct-15 10:00N 23°57' E 118°23'25510.2
2017-Oct-14 09:01N 22°19' E 114°06'010.8
2017-Oct-14 08:59N 22°19' E 114°07'0 0.0
2017-Oct-13 18:02N 22°19' E 114°07'0 6.6
2017-Oct-13 18:00N 22°19' E 114°07'321 9.3
2017-Oct-12 07:17N 22°31' E 119°54'519.2
2017-Oct-12 07:00N 22°32' E 119°60'1019.5
2017-Oct-12 06:30N 22°33' E 120°10'815.9
2017-Oct-12 06:00N 22°33' E 120°19'1 2.1
2017-Oct-12 05:30N 22°34' E 120°19'0 0.1
2017-Oct-12 03:01N 22°34' E 120°19'0 0.0
2017-Oct-12 02:49N 22°34' E 120°19'0 0.0
2017-Oct-12 02:28N 22°34' E 120°19'0 0.0
2017-Oct-11 23:31N 22°34' E 120°19'0 0.0
2017-Oct-11 23:18N 22°34' E 120°19'0 1.7
2017-Oct-11 23:00N 22°34' E 120°19'2 4.4
2017-Oct-11 22:30N 22°33' E 120°17'3 5.6
2017-Oct-11 22:00N 22°31' E 120°14'2 3.8
2017-Oct-11 21:30N 22°30' E 120°13'0 0.7
2017-Oct-11 21:00N 22°30' E 120°13'0 0.3
2017-Oct-11 20:30N 22°30' E 120°13'0 0.8
2017-Oct-11 20:00N 22°30' E 120°13'3 6.2
2017-Oct-11 19:30N 22°33' E 120°10'4 7.6
2017-Oct-11 19:00N 22°36' E 120°09'4 8.0
2017-Oct-11 18:30N 22°40' E 120°07'4 8.2
2017-Oct-11 18:00N 22°43' E 120°05'4 8.3
2017-Oct-11 17:30N 22°47' E 120°03'4 8.0
2017-Oct-11 17:00N 22°51' E 120°01'  

Dump ship's entire track history